createdAt,value
2017-07-03T00:00:18.440Z,0.1
2017-07-03T00:00:56.210Z,1.5
2017-07-03T00:01:34.076Z,1.8
2017-07-03T00:02:12.046Z,0.8
2017-07-03T00:02:50.119Z,1.8
2017-07-03T00:03:27.684Z,0.5
2017-07-03T00:04:05.454Z,0.2
2017-07-03T00:04:43.025Z,1.1
2017-07-03T00:05:20.690Z,0.3
2017-07-03T00:05:58.258Z,0.9
2017-07-03T00:06:36.026Z,1.0
2017-07-03T00:07:14.097Z,3.4
2017-07-03T00:07:52.066Z,2.2
2017-07-03T00:08:29.733Z,1.5
2017-07-03T00:09:07.598Z,1.7
2017-07-03T00:09:45.266Z,0.8
2017-07-03T00:10:23.531Z,2.3
2017-07-03T00:11:01.605Z,1.5
2017-07-03T00:11:39.471Z,1.7
2017-07-03T00:12:17.333Z,1.0
2017-07-03T00:12:55.295Z,1.0
2017-07-03T00:13:33.370Z,1.0
2017-07-03T00:14:11.130Z,1.0
2017-07-03T00:14:49.104Z,0.9
2017-07-03T00:15:26.874Z,1.0
2017-07-03T00:16:04.743Z,2.9
2017-07-03T00:16:42.405Z,0.5
2017-07-03T00:17:20.076Z,1.7
2017-07-03T00:17:58.144Z,0.9
2017-07-03T00:18:36.015Z,0.1
2017-07-03T00:19:13.887Z,0.5
2017-07-03T00:19:51.756Z,0.0
2017-07-03T00:20:29.733Z,1.1
2017-07-03T00:21:07.598Z,0.7
2017-07-03T00:21:45.465Z,1.2
2017-07-03T00:22:23.434Z,2.2
2017-07-03T00:23:01.201Z,1.6
2017-07-03T00:23:39.067Z,1.5
2017-07-03T00:24:16.742Z,3.0
2017-07-03T00:24:54.827Z,2.3
2017-07-03T00:25:32.590Z,0.6
2017-07-03T00:26:10.251Z,1.3
2017-07-03T00:26:48.326Z,1.0
2017-07-03T00:27:26.005Z,0.2
2017-07-03T00:28:03.971Z,0.0
2017-07-03T00:28:41.941Z,0.0
2017-07-03T00:29:19.611Z,1.4
2017-07-03T00:29:57.575Z,1.4
2017-07-03T00:30:35.442Z,1.8
2017-07-03T00:31:13.321Z,0.7
2017-07-03T00:31:51.194Z,1.5
2017-07-03T00:32:28.758Z,1.6
2017-07-03T00:33:06.625Z,1.5
2017-07-03T00:33:44.608Z,2.8
2017-07-03T00:34:22.469Z,2.6
2017-07-03T00:35:00.135Z,1.7
2017-07-03T00:35:37.821Z,1.4
2017-07-03T00:36:15.284Z,1.8
2017-07-03T00:36:53.055Z,0.9
2017-07-03T00:37:31.118Z,0.9
2017-07-03T00:38:09.093Z,2.0
2017-07-03T00:38:46.954Z,2.6
2017-07-03T00:39:25.125Z,3.9
2017-07-03T00:40:03.188Z,1.4
2017-07-03T00:40:40.959Z,1.6
2017-07-03T00:41:18.929Z,3.3
2017-07-03T00:41:57.103Z,1.4
2017-07-03T00:42:35.280Z,2.0
2017-07-03T00:43:13.048Z,3.0
2017-07-03T00:43:51.216Z,4.2
2017-07-03T00:44:29.198Z,3.2
2017-07-03T00:45:07.170Z,1.8
2017-07-03T00:45:45.142Z,0.4
2017-07-03T00:46:23.109Z,0.5
2017-07-03T00:47:01.091Z,1.7
2017-07-03T00:47:38.755Z,0.9
2017-07-03T00:48:16.719Z,0.7
2017-07-03T00:48:54.494Z,0.6
2017-07-03T00:49:32.265Z,2.2
2017-07-03T00:50:10.330Z,3.1
2017-07-03T00:50:48.400Z,0.2
2017-07-03T00:51:26.176Z,0.6
2017-07-03T00:52:04.045Z,1.0
2017-07-03T00:52:42.011Z,2.7
2017-07-03T00:53:19.884Z,1.0
2017-07-03T00:53:57.851Z,2.5
2017-07-03T00:54:35.815Z,1.9
2017-07-03T00:55:13.792Z,1.6
2017-07-03T00:55:51.366Z,0.3
2017-07-03T00:56:29.534Z,0.2
2017-07-03T00:57:07.397Z,2.2
2017-07-03T00:57:45.371Z,2.1
2017-07-03T00:58:23.243Z,1.5
2017-07-03T00:59:01.107Z,1.9
2017-07-03T00:59:39.172Z,1.6
2017-07-03T01:00:16.939Z,0.9
2017-07-03T01:00:54.906Z,0.9
2017-07-03T01:01:32.573Z,0.2
2017-07-03T01:02:10.144Z,2.3
2017-07-03T01:02:48.021Z,1.0
2017-07-03T01:03:26.084Z,1.4
2017-07-03T01:04:03.752Z,0.2
2017-07-03T01:04:41.820Z,0.5
2017-07-03T01:05:19.584Z,1.2
2017-07-03T01:05:57.548Z,1.6
2017-07-03T01:06:35.222Z,0.7
2017-07-03T01:07:13.289Z,0.8
2017-07-03T01:07:51.262Z,0.1
2017-07-03T01:08:28.935Z,0.2
2017-07-03T01:09:06.505Z,1.2
2017-07-03T01:09:44.273Z,1.4
2017-07-03T01:10:22.340Z,0.6
2017-07-03T01:11:00.108Z,0.9
2017-07-03T01:11:37.673Z,2.2
2017-07-03T01:12:15.745Z,1.7
2017-07-03T01:12:53.420Z,1.4
2017-07-03T01:13:31.186Z,1.2
2017-07-03T01:14:09.346Z,0.7
2017-07-03T01:14:47.415Z,1.6
2017-07-03T01:15:25.281Z,0.8
2017-07-03T01:16:03.050Z,1.4
2017-07-03T01:16:41.021Z,1.4
2017-07-03T01:17:19.088Z,0.7
2017-07-03T01:17:56.960Z,0.7
2017-07-03T01:18:34.926Z,0.5
2017-07-03T01:19:12.490Z,1.2
2017-07-03T01:19:50.669Z,1.5
2017-07-03T01:20:28.536Z,0.2
2017-07-03T01:21:06.232Z,0.0
2017-07-03T01:21:43.998Z,0.1
2017-07-03T01:22:21.771Z,0.2
2017-07-03T01:22:59.645Z,0.0
2017-07-03T01:23:37.711Z,1.1
2017-07-03T01:24:15.682Z,3.2
2017-07-03T01:24:53.651Z,1.1
2017-07-03T01:25:31.717Z,2.6
2017-07-03T01:26:09.587Z,1.8
2017-07-03T01:26:47.659Z,2.2
2017-07-03T01:27:25.430Z,1.0
2017-07-03T01:28:03.399Z,0.0
2017-07-03T01:28:41.065Z,0.2
2017-07-03T01:29:18.834Z,1.1
2017-07-03T01:29:56.604Z,1.0
2017-07-03T01:30:34.872Z,2.4
2017-07-03T01:31:12.446Z,0.0
2017-07-03T01:31:50.114Z,1.4
2017-07-03T01:32:27.980Z,0.8
2017-07-03T01:33:05.852Z,0.0
2017-07-03T01:33:43.924Z,1.8
2017-07-03T01:34:21.591Z,1.4
2017-07-03T01:34:59.856Z,1.0
2017-07-03T01:35:37.846Z,0.0
2017-07-03T01:36:15.920Z,0.0
2017-07-03T01:36:53.788Z,0.7
2017-07-03T01:37:31.756Z,1.0
2017-07-03T01:38:09.331Z,0.0
2017-07-03T01:38:47.296Z,0.0
2017-07-03T01:39:25.470Z,0.6
2017-07-03T01:40:03.243Z,0.8
2017-07-03T01:40:41.308Z,0.1
2017-07-03T01:41:18.874Z,0.3
2017-07-03T01:41:56.643Z,1.8
2017-07-03T01:42:34.619Z,0.3
2017-07-03T01:43:12.387Z,1.1
2017-07-03T01:43:50.056Z,1.0
2017-07-03T01:44:28.126Z,0.0
2017-07-03T01:45:05.792Z,0.7
2017-07-03T01:45:43.953Z,1.6
2017-07-03T01:46:23.635Z,0.6
2017-07-03T01:47:01.803Z,0.3
2017-07-03T01:47:39.667Z,1.6
2017-07-03T01:48:17.538Z,1.1
2017-07-03T01:48:55.121Z,1.1
2017-07-03T01:49:32.886Z,1.3
2017-07-03T01:50:10.849Z,1.3
2017-07-03T01:50:48.425Z,1.8
2017-07-03T01:51:26.394Z,1.4
2017-07-03T01:52:04.261Z,1.6
2017-07-03T01:52:42.031Z,1.4
2017-07-03T01:53:19.818Z,1.4
2017-07-03T01:53:57.667Z,2.4
2017-07-03T01:54:35.236Z,1.4
2017-07-03T01:55:12.902Z,1.7
2017-07-03T01:55:50.374Z,2.2
2017-07-03T01:56:28.248Z,1.3
2017-07-03T01:57:05.820Z,1.0
2017-07-03T01:57:43.691Z,1.6
2017-07-03T01:58:21.860Z,1.2
2017-07-03T01:58:59.935Z,1.0
2017-07-03T01:59:37.910Z,1.0
2017-07-03T02:00:15.879Z,1.0
2017-07-03T02:00:53.546Z,0.0
2017-07-03T02:01:31.418Z,1.4
2017-07-03T02:02:09.287Z,0.2
2017-07-03T02:02:47.153Z,1.0
2017-07-03T02:03:25.226Z,1.4
2017-07-03T02:04:03.094Z,1.0
2017-07-03T02:04:41.161Z,0.3
2017-07-03T02:05:19.138Z,1.7
2017-07-03T02:05:57.009Z,1.9
2017-07-03T02:06:34.991Z,1.7
2017-07-03T02:07:12.556Z,0.2
2017-07-03T02:07:50.234Z,0.3
2017-07-03T02:08:28.000Z,1.9
2017-07-03T02:09:05.669Z,0.3
2017-07-03T02:09:43.339Z,0.8
2017-07-03T02:10:21.011Z,1.4
2017-07-03T02:10:58.889Z,1.9
2017-07-03T02:11:36.660Z,1.4
2017-07-03T02:12:14.426Z,1.2
2017-07-03T02:12:52.193Z,2.6
2017-07-03T02:13:29.957Z,1.4
2017-07-03T02:14:07.727Z,1.8
2017-07-03T02:14:45.406Z,1.1
2017-07-03T02:15:22.975Z,0.0
2017-07-03T02:16:00.943Z,1.0
2017-07-03T02:16:38.924Z,2.1
2017-07-03T02:17:16.496Z,1.7
2017-07-03T02:17:54.182Z,1.0
2017-07-03T02:18:32.152Z,1.0
2017-07-03T02:19:10.217Z,1.4
2017-07-03T02:19:48.192Z,2.0
2017-07-03T02:20:26.061Z,1.6
2017-07-03T02:21:04.326Z,1.8
2017-07-03T02:21:42.504Z,1.6
2017-07-03T02:22:20.273Z,0.4
2017-07-03T02:22:58.249Z,0.0
2017-07-03T02:23:36.014Z,0.2
2017-07-03T02:24:13.900Z,0.4
2017-07-03T02:24:51.861Z,0.5
2017-07-03T02:25:29.528Z,1.0
2017-07-03T02:26:07.601Z,1.6
2017-07-03T02:26:45.474Z,1.6
2017-07-03T02:27:23.340Z,1.4
2017-07-03T02:28:01.115Z,1.8
2017-07-03T02:28:38.891Z,1.0
2017-07-03T02:29:16.654Z,0.0
2017-07-03T02:29:54.619Z,1.4
2017-07-03T02:30:32.690Z,0.2
2017-07-03T02:31:10.965Z,0.0
2017-07-03T02:31:48.829Z,0.1
2017-07-03T02:32:26.906Z,0.2
2017-07-03T02:33:04.986Z,1.1
2017-07-03T02:33:42.849Z,1.4
2017-07-03T02:34:20.632Z,1.7
2017-07-03T02:34:58.399Z,0.2
2017-07-03T02:35:36.374Z,1.5
2017-07-03T02:36:14.439Z,3.5
2017-07-03T02:36:52.213Z,2.2
2017-07-03T02:37:30.388Z,3.3
2017-07-03T02:38:08.056Z,2.9
2017-07-03T02:38:46.229Z,1.4
2017-07-03T02:39:23.997Z,2.2
2017-07-03T02:40:01.979Z,0.6
2017-07-03T02:40:39.847Z,0.9
2017-07-03T02:41:17.818Z,0.3
2017-07-03T02:41:55.593Z,1.4
2017-07-03T02:42:33.461Z,4.0
2017-07-03T02:43:11.029Z,1.0
2017-07-03T02:43:48.899Z,2.1
2017-07-03T02:44:26.766Z,1.3
2017-07-03T02:45:04.830Z,0.1
2017-07-03T02:45:42.700Z,0.7
2017-07-03T02:46:22.427Z,1.8
2017-07-03T02:47:00.296Z,2.2
2017-07-03T02:47:37.979Z,1.5
2017-07-03T02:48:15.856Z,1.2
2017-07-03T02:48:54.024Z,0.6
2017-07-03T02:49:32.095Z,0.4
2017-07-03T02:50:10.271Z,0.6
2017-07-03T02:50:48.137Z,0.0
2017-07-03T02:51:25.803Z,0.4
2017-07-03T02:52:03.770Z,1.4
2017-07-03T02:52:41.548Z,0.5
2017-07-03T02:53:19.222Z,0.6
2017-07-03T02:53:57.199Z,1.5
2017-07-03T02:54:35.361Z,1.2
2017-07-03T02:55:13.440Z,0.6
2017-07-03T02:55:51.606Z,0.4
2017-07-03T02:56:29.697Z,0.2
2017-07-03T02:57:07.677Z,0.2
2017-07-03T02:57:45.553Z,2.6
2017-07-03T02:58:23.319Z,1.8
2017-07-03T02:59:01.091Z,1.1
2017-07-03T02:59:38.961Z,0.2
2017-07-03T03:00:16.730Z,0.9
2017-07-03T03:00:54.703Z,0.8
2017-07-03T03:01:33.095Z,0.9
2017-07-03T03:02:10.970Z,2.7
2017-07-03T03:02:48.342Z,0.5
2017-07-03T03:03:26.412Z,1.1
2017-07-03T03:04:04.199Z,1.3
2017-07-03T03:04:42.065Z,0.6
2017-07-03T03:05:19.839Z,3.2
2017-07-03T03:05:57.814Z,3.6
2017-07-03T03:06:35.384Z,2.2
2017-07-03T03:07:13.257Z,1.3
2017-07-03T03:07:51.131Z,1.4
2017-07-03T03:08:29.213Z,0.4
2017-07-03T03:09:07.381Z,2.3
2017-07-03T03:09:45.152Z,0.7
2017-07-03T03:10:23.127Z,0.2
2017-07-03T03:11:01.125Z,0.0
2017-07-03T03:11:39.092Z,0.4
2017-07-03T03:12:16.861Z,2.2
2017-07-03T03:12:54.938Z,1.2
2017-07-03T03:13:32.615Z,1.7
2017-07-03T03:14:10.783Z,0.9
2017-07-03T03:14:48.859Z,0.4
2017-07-03T03:15:26.636Z,1.6
2017-07-03T03:16:04.706Z,0.8
2017-07-03T03:16:42.785Z,1.3
2017-07-03T03:17:20.756Z,0.8
2017-07-03T03:17:58.426Z,1.0
2017-07-03T03:18:35.909Z,1.4
2017-07-03T03:19:14.074Z,1.2
2017-07-03T03:19:52.150Z,0.7
2017-07-03T03:20:30.216Z,2.2
2017-07-03T03:21:08.193Z,0.9
2017-07-03T03:21:46.168Z,0.3
2017-07-03T03:22:23.936Z,1.7
2017-07-03T03:23:01.610Z,2.0
2017-07-03T03:23:39.785Z,3.0
2017-07-03T03:24:17.864Z,1.9
2017-07-03T03:24:55.933Z,1.8
2017-07-03T03:25:33.913Z,0.8
2017-07-03T03:26:11.700Z,0.0
2017-07-03T03:26:49.570Z,0.3
2017-07-03T03:27:27.544Z,0.0
2017-07-03T03:28:05.323Z,0.6
2017-07-03T03:28:43.202Z,0.1
2017-07-03T03:29:21.070Z,0.7
2017-07-03T03:29:59.043Z,0.2
2017-07-03T03:30:37.027Z,0.0
2017-07-03T03:31:14.694Z,0.0
2017-07-03T03:31:52.266Z,0.0
2017-07-03T03:32:30.045Z,0.0
2017-07-03T03:33:08.125Z,0.5
2017-07-03T03:33:46.098Z,0.4
2017-07-03T03:34:23.773Z,2.2
2017-07-03T03:35:01.652Z,0.7
2017-07-03T03:35:39.519Z,1.8
2017-07-03T03:36:17.195Z,1.8
2017-07-03T03:36:55.072Z,1.2
2017-07-03T03:37:33.148Z,1.7
2017-07-03T03:38:11.422Z,1.9
2017-07-03T03:38:49.302Z,1.7
2017-07-03T03:39:27.181Z,1.4
2017-07-03T03:40:04.849Z,2.2
2017-07-03T03:40:42.824Z,1.8
2017-07-03T03:41:20.894Z,1.7
2017-07-03T03:41:58.873Z,2.5
2017-07-03T03:42:37.155Z,1.8
2017-07-03T03:43:15.029Z,1.0
2017-07-03T03:43:53.202Z,2.2
2017-07-03T03:44:30.972Z,1.2
2017-07-03T03:45:08.848Z,0.3
2017-07-03T03:45:46.625Z,2.2
2017-07-03T03:46:26.498Z,0.2
2017-07-03T03:47:04.371Z,1.6
2017-07-03T03:47:42.049Z,1.8
2017-07-03T03:48:19.822Z,2.3
2017-07-03T03:48:57.396Z,1.0
2017-07-03T03:49:35.162Z,1.4
2017-07-03T03:50:13.036Z,1.8
2017-07-03T03:50:50.822Z,2.0
2017-07-03T03:51:28.690Z,1.3
2017-07-03T03:52:06.472Z,1.4
2017-07-03T03:52:44.253Z,1.0
2017-07-03T03:53:21.821Z,2.2
2017-07-03T03:53:59.297Z,0.9
2017-07-03T03:54:36.868Z,2.4
2017-07-03T03:55:14.740Z,2.0
2017-07-03T03:55:52.515Z,0.9
2017-07-03T03:56:31.550Z,2.2
2017-07-03T03:57:09.523Z,1.5
2017-07-03T03:57:47.197Z,2.2
2017-07-03T03:58:24.972Z,1.4
2017-07-03T03:59:02.653Z,1.7
2017-07-03T03:59:40.913Z,2.4
2017-07-03T04:00:18.892Z,2.4
2017-07-03T04:00:56.771Z,1.5
2017-07-03T04:01:34.356Z,1.7
2017-07-03T04:02:12.123Z,1.4
2017-07-03T04:02:50.200Z,2.2
2017-07-03T04:03:27.978Z,1.4
2017-07-03T04:04:05.850Z,1.3
2017-07-03T04:04:43.825Z,1.7
2017-07-03T04:05:21.496Z,1.5
2017-07-03T04:05:59.376Z,2.0
2017-07-03T04:06:37.350Z,1.2
2017-07-03T04:07:15.122Z,1.6
2017-07-03T04:07:53.100Z,1.4
2017-07-03T04:08:31.177Z,1.7
2017-07-03T04:09:09.249Z,2.2
2017-07-03T04:09:47.215Z,2.3
2017-07-03T04:10:25.102Z,2.1
2017-07-03T04:11:03.073Z,2.2
2017-07-03T04:11:41.063Z,1.7
2017-07-03T04:12:18.841Z,2.6
2017-07-03T04:12:56.613Z,2.5
2017-07-03T04:13:34.782Z,2.0
2017-07-03T04:14:12.567Z,1.4
2017-07-03T04:14:50.338Z,2.0
2017-07-03T04:15:28.116Z,3.0
2017-07-03T04:16:06.085Z,0.6
2017-07-03T04:16:44.274Z,1.5
2017-07-03T04:17:22.147Z,0.9
2017-07-03T04:18:00.217Z,1.8
2017-07-03T04:18:38.108Z,2.0
2017-07-03T04:19:16.281Z,0.6
2017-07-03T04:19:54.553Z,3.0
2017-07-03T04:20:32.522Z,3.3
2017-07-03T04:21:10.499Z,1.5
2017-07-03T04:21:48.276Z,1.5
2017-07-03T04:22:26.192Z,1.0
2017-07-03T04:23:03.719Z,1.8
2017-07-03T04:23:41.496Z,1.4
2017-07-03T04:24:19.365Z,2.0
2017-07-03T04:24:57.442Z,3.7
2017-07-03T04:25:35.117Z,2.4
2017-07-03T04:26:12.792Z,1.3
2017-07-03T04:26:50.463Z,0.7
2017-07-03T04:27:28.436Z,1.3
2017-07-03T04:28:06.313Z,1.6
2017-07-03T04:28:43.879Z,0.6
2017-07-03T04:29:21.651Z,1.1
2017-07-03T04:29:59.426Z,3.0
2017-07-03T04:30:37.399Z,1.2
2017-07-03T04:31:15.077Z,1.9
2017-07-03T04:31:52.845Z,2.7
2017-07-03T04:32:30.925Z,2.5
2017-07-03T04:33:08.992Z,1.4
2017-07-03T04:33:46.873Z,1.5
2017-07-03T04:34:25.046Z,3.3
2017-07-03T04:35:02.624Z,1.4
2017-07-03T04:35:40.495Z,3.0
2017-07-03T04:36:18.266Z,2.2
2017-07-03T04:36:56.243Z,4.8
2017-07-03T04:37:34.218Z,2.4
2017-07-03T04:38:11.694Z,1.8
2017-07-03T04:38:49.568Z,3.4
2017-07-03T04:39:27.543Z,2.2
2017-07-03T04:40:05.517Z,3.6
2017-07-03T04:40:43.493Z,2.3
2017-07-03T04:41:21.266Z,2.4
2017-07-03T04:41:59.136Z,2.8
2017-07-03T04:42:37.112Z,2.7
2017-07-03T04:43:15.087Z,3.9
2017-07-03T04:43:52.863Z,2.9
2017-07-03T04:44:30.730Z,2.6
2017-07-03T04:45:08.612Z,2.7
2017-07-03T04:45:46.490Z,3.1
2017-07-03T04:46:24.564Z,2.6
2017-07-03T04:47:02.337Z,2.6
2017-07-03T04:47:40.015Z,3.1
2017-07-03T04:48:18.084Z,4.2
2017-07-03T04:48:55.860Z,1.6
2017-07-03T04:49:33.733Z,3.0
2017-07-03T04:50:11.321Z,2.2
2017-07-03T04:50:49.297Z,3.4
2017-07-03T04:51:27.268Z,2.9
2017-07-03T04:52:05.142Z,2.5
2017-07-03T04:52:43.121Z,2.6
2017-07-03T04:53:20.985Z,3.0
2017-07-03T04:53:58.563Z,4.3
2017-07-03T04:54:36.338Z,3.9
2017-07-03T04:55:14.218Z,5.2
2017-07-03T04:55:52.101Z,3.4
2017-07-03T04:56:30.198Z,4.1
2017-07-03T04:57:07.981Z,3.7
2017-07-03T04:57:45.652Z,5.2
2017-07-03T04:58:23.431Z,3.9
2017-07-03T04:59:01.308Z,2.8
2017-07-03T04:59:39.078Z,3.9
2017-07-03T05:00:17.053Z,4.9
2017-07-03T05:00:54.924Z,3.7
2017-07-03T05:01:32.601Z,2.8
2017-07-03T05:02:10.677Z,3.0
2017-07-03T05:02:48.665Z,4.4
2017-07-03T05:03:26.442Z,3.9
2017-07-03T05:04:04.515Z,3.1
2017-07-03T05:04:42.185Z,1.5
2017-07-03T05:05:19.964Z,2.9
2017-07-03T05:05:57.937Z,2.8
2017-07-03T05:06:36.221Z,1.0
2017-07-03T05:07:14.100Z,3.0
2017-07-03T05:07:52.377Z,2.4
2017-07-03T05:08:30.261Z,1.6
2017-07-03T05:09:08.144Z,2.7
2017-07-03T05:09:45.724Z,2.4
2017-07-03T05:10:23.596Z,3.5
2017-07-03T05:11:01.468Z,3.2
2017-07-03T05:11:39.346Z,3.0
2017-07-03T05:12:17.232Z,2.8
2017-07-03T05:12:54.721Z,0.5
2017-07-03T05:13:32.798Z,1.3
2017-07-03T05:14:11.649Z,3.2
2017-07-03T05:14:49.738Z,1.0
2017-07-03T05:15:27.607Z,2.7
2017-07-03T05:16:05.384Z,3.8
2017-07-03T05:16:42.960Z,1.0
2017-07-03T05:17:20.935Z,4.4
2017-07-03T05:17:58.910Z,5.4
2017-07-03T05:18:36.586Z,2.8
2017-07-03T05:19:14.360Z,3.2
2017-07-03T05:19:52.434Z,1.1
2017-07-03T05:20:30.412Z,3.0
2017-07-03T05:21:08.185Z,0.9
2017-07-03T05:21:45.960Z,4.9
2017-07-03T05:22:23.733Z,4.4
2017-07-03T05:23:01.915Z,4.3
2017-07-03T05:23:39.712Z,1.0
2017-07-03T05:24:17.390Z,1.1
2017-07-03T05:24:55.673Z,2.2
2017-07-03T05:25:33.353Z,1.3
2017-07-03T05:26:11.225Z,5.0
2017-07-03T05:26:49.208Z,2.2
2017-07-03T05:27:27.088Z,2.5
2017-07-03T05:28:05.165Z,2.7
2017-07-03T05:28:42.934Z,2.2
2017-07-03T05:29:20.814Z,2.8
2017-07-03T05:29:58.802Z,3.6
2017-07-03T05:30:36.580Z,2.6
2017-07-03T05:31:14.351Z,2.2
2017-07-03T05:31:52.432Z,2.4
2017-07-03T05:32:30.202Z,1.8
2017-07-03T05:33:08.280Z,4.6
2017-07-03T05:33:46.159Z,3.1
2017-07-03T05:34:24.037Z,2.2
2017-07-03T05:35:01.706Z,3.0
2017-07-03T05:35:39.386Z,2.2
2017-07-03T05:36:17.255Z,1.2
2017-07-03T05:36:55.134Z,2.2
2017-07-03T05:37:33.103Z,3.2
2017-07-03T05:38:10.578Z,1.8
2017-07-03T05:38:48.660Z,2.5
2017-07-03T05:39:26.430Z,1.7
2017-07-03T05:40:04.205Z,2.0
2017-07-03T05:40:42.283Z,2.2
2017-07-03T05:41:20.060Z,2.7
2017-07-03T05:41:57.836Z,3.9
2017-07-03T05:42:35.712Z,4.0
2017-07-03T05:43:13.786Z,2.5
2017-07-03T05:43:51.869Z,1.3
2017-07-03T05:44:29.844Z,1.3
2017-07-03T05:45:07.522Z,0.2
2017-07-03T05:45:45.597Z,1.0
2017-07-03T05:46:23.671Z,1.0
2017-07-03T05:47:01.445Z,2.1
2017-07-03T05:47:39.323Z,3.5
2017-07-03T05:48:17.104Z,3.1
2017-07-03T05:48:54.778Z,4.2
2017-07-03T05:49:32.862Z,3.0
2017-07-03T05:50:10.739Z,1.8
2017-07-03T05:50:49.680Z,2.5
2017-07-03T05:51:27.657Z,4.1
2017-07-03T05:52:05.342Z,2.7
2017-07-03T05:52:43.040Z,3.1
2017-07-03T05:53:20.609Z,2.6
2017-07-03T05:53:58.690Z,2.6
2017-07-03T05:54:36.571Z,2.6
2017-07-03T05:55:14.342Z,2.5
2017-07-03T05:55:52.622Z,3.5
2017-07-03T05:56:31.183Z,2.2
2017-07-03T05:57:09.054Z,4.6
2017-07-03T05:57:47.238Z,6.2
2017-07-03T05:58:25.113Z,3.0
2017-07-03T05:59:02.991Z,2.2
2017-07-03T05:59:41.262Z,3.9
2017-07-03T06:00:19.509Z,1.2
2017-07-03T06:00:58.442Z,4.1
2017-07-03T06:01:36.506Z,4.0
2017-07-03T06:02:14.282Z,2.5
2017-07-03T06:02:52.062Z,3.3
2017-07-03T06:03:29.741Z,4.4
2017-07-03T06:04:07.818Z,1.4
2017-07-03T06:04:45.700Z,2.3
2017-07-03T06:05:23.627Z,2.2
2017-07-03T06:06:01.401Z,0.2
2017-07-03T06:06:39.397Z,5.8
2017-07-03T06:07:17.173Z,4.7
2017-07-03T06:07:54.759Z,3.0
2017-07-03T06:08:32.739Z,0.2
2017-07-03T06:09:10.418Z,1.8
2017-07-03T06:09:48.503Z,3.3
2017-07-03T06:10:26.076Z,4.7
2017-07-03T06:11:03.849Z,3.8
2017-07-03T06:11:42.037Z,4.6
2017-07-03T06:12:19.918Z,3.9
2017-07-03T06:12:57.499Z,4.3
2017-07-03T06:13:35.581Z,4.6
2017-07-03T06:14:13.872Z,3.8
2017-07-03T06:14:51.748Z,2.3
2017-07-03T06:15:29.526Z,5.0
2017-07-03T06:16:07.810Z,7.1
2017-07-03T06:16:45.592Z,4.2
2017-07-03T06:17:23.371Z,6.8
2017-07-03T06:18:01.347Z,6.4
2017-07-03T06:18:39.329Z,4.6
2017-07-03T06:19:17.308Z,3.9
2017-07-03T06:19:55.190Z,2.7
2017-07-03T06:20:33.172Z,4.3
2017-07-03T06:21:11.259Z,5.9
2017-07-03T06:21:48.839Z,1.9
2017-07-03T06:22:26.517Z,1.8
2017-07-03T06:23:04.504Z,3.1
2017-07-03T06:23:42.390Z,3.2
2017-07-03T06:24:20.247Z,3.8
2017-07-03T06:24:57.934Z,3.5
2017-07-03T06:25:35.823Z,3.1
2017-07-03T06:26:13.806Z,2.1
2017-07-03T06:26:51.395Z,4.6
2017-07-03T06:27:28.982Z,3.8
2017-07-03T06:28:06.960Z,6.6
2017-07-03T06:28:45.047Z,5.4
2017-07-03T06:29:22.933Z,10.0
2017-07-03T06:30:00.817Z,6.4
2017-07-03T06:30:38.831Z,3.4
2017-07-03T06:31:16.727Z,5.8
2017-07-03T06:31:54.322Z,9.0
2017-07-03T06:32:32.200Z,7.8
2017-07-03T06:33:10.286Z,5.4
2017-07-03T06:33:48.179Z,7.0
2017-07-03T06:34:25.974Z,8.7
2017-07-03T06:35:03.754Z,0.8
2017-07-03T06:35:41.839Z,2.4
2017-07-03T06:36:19.526Z,4.2
2017-07-03T06:36:57.765Z,6.9
2017-07-03T06:37:35.654Z,6.1
2017-07-03T06:38:13.643Z,4.2
2017-07-03T06:38:51.527Z,4.6
2017-07-03T06:39:29.512Z,1.4
2017-07-03T06:40:07.295Z,2.1
2017-07-03T06:40:45.085Z,0.1
2017-07-03T06:41:23.180Z,1.8
2017-07-03T06:42:01.155Z,4.9
2017-07-03T06:42:39.139Z,4.0
2017-07-03T06:43:17.038Z,6.1
2017-07-03T06:43:54.823Z,4.5
2017-07-03T06:44:32.701Z,4.0
2017-07-03T06:45:10.600Z,7.0
2017-07-03T06:45:48.384Z,4.9
2017-07-03T06:46:26.173Z,9.8
2017-07-03T06:47:03.761Z,5.6
2017-07-03T06:47:41.648Z,5.0
2017-07-03T06:48:19.534Z,5.9
2017-07-03T06:48:57.431Z,0.9
2017-07-03T06:49:35.417Z,4.6
2017-07-03T06:50:13.213Z,4.2
2017-07-03T06:50:50.998Z,5.2
2017-07-03T06:51:28.788Z,4.7
2017-07-03T06:52:06.478Z,4.8
2017-07-03T06:52:44.058Z,7.0
2017-07-03T06:53:22.044Z,6.1
2017-07-03T06:53:59.937Z,6.0
2017-07-03T06:54:37.619Z,2.9
2017-07-03T06:55:15.513Z,2.6
2017-07-03T06:55:53.303Z,3.8
2017-07-03T06:56:31.187Z,4.5
2017-07-03T06:57:09.382Z,3.5
2017-07-03T06:57:47.064Z,5.3
2017-07-03T06:58:24.970Z,5.1
2017-07-03T06:59:02.940Z,4.1
2017-07-03T06:59:40.730Z,3.7
2017-07-03T07:00:18.324Z,5.9
2017-07-03T07:00:56.309Z,5.0
2017-07-03T07:01:34.200Z,4.0
2017-07-03T07:02:12.391Z,2.9
2017-07-03T07:02:50.483Z,3.9
2017-07-03T07:03:28.365Z,3.8
2017-07-03T07:04:06.256Z,4.9
2017-07-03T07:04:43.842Z,1.3
2017-07-03T07:05:21.632Z,6.4
2017-07-03T07:05:59.677Z,6.6
2017-07-03T07:06:37.569Z,5.6
2017-07-03T07:07:15.262Z,2.8
2017-07-03T07:07:52.948Z,6.8
2017-07-03T07:08:30.539Z,3.0
2017-07-03T07:09:08.028Z,3.6
2017-07-03T07:09:45.814Z,5.8
2017-07-03T07:10:23.506Z,6.2
2017-07-03T07:11:01.699Z,3.8
2017-07-03T07:11:39.590Z,6.2
2017-07-03T07:12:17.782Z,3.6
2017-07-03T07:12:55.670Z,0.2
2017-07-03T07:13:33.461Z,1.6
2017-07-03T07:14:11.354Z,3.7
2017-07-03T07:14:49.139Z,7.3
2017-07-03T07:15:27.254Z,3.7
2017-07-03T07:16:05.145Z,2.9
2017-07-03T07:16:43.176Z,4.9
2017-07-03T07:17:21.061Z,7.2
2017-07-03T07:17:58.953Z,7.4
2017-07-03T07:18:37.051Z,5.1
2017-07-03T07:19:14.937Z,6.4
2017-07-03T07:19:53.026Z,5.5
2017-07-03T07:20:31.019Z,8.9
2017-07-03T07:21:09.110Z,7.8
2017-07-03T07:21:46.901Z,5.2
2017-07-03T07:22:24.690Z,5.1
2017-07-03T07:23:02.682Z,6.3
2017-07-03T07:23:40.794Z,6.2
2017-07-03T07:24:18.691Z,5.8
2017-07-03T07:24:56.373Z,5.8
2017-07-03T07:25:34.162Z,2.7
2017-07-03T07:26:11.949Z,7.2
2017-07-03T07:26:49.545Z,3.7
2017-07-03T07:27:27.530Z,2.4
2017-07-03T07:28:05.314Z,4.1
2017-07-03T07:28:43.208Z,1.3
2017-07-03T07:29:21.214Z,5.8
2017-07-03T07:29:58.899Z,4.6
2017-07-03T07:30:37.000Z,1.5
2017-07-03T07:31:14.975Z,7.9
2017-07-03T07:31:52.764Z,5.7
2017-07-03T07:32:30.450Z,5.0
2017-07-03T07:33:08.445Z,6.2
2017-07-03T07:33:46.142Z,10.5
2017-07-03T07:34:23.627Z,6.7
2017-07-03T07:35:01.223Z,4.6
2017-07-03T07:35:39.213Z,6.1
2017-07-03T07:36:18.028Z,7.7
2017-07-03T07:36:56.014Z,5.4
2017-07-03T07:37:33.905Z,6.9
2017-07-03T07:38:11.590Z,3.8
2017-07-03T07:38:49.376Z,6.7
2017-07-03T07:39:27.466Z,8.7
2017-07-03T07:40:05.251Z,8.8
2017-07-03T07:40:43.045Z,6.1
2017-07-03T07:41:21.031Z,5.0
2017-07-03T07:41:59.120Z,7.0
2017-07-03T07:42:37.515Z,5.9
2017-07-03T07:43:15.508Z,7.0
2017-07-03T07:43:53.090Z,4.1
2017-07-03T07:44:30.680Z,6.1
2017-07-03T07:45:08.277Z,8.0
2017-07-03T07:45:46.275Z,3.5
2017-07-03T07:46:24.088Z,6.7
2017-07-03T07:47:01.989Z,9.3
2017-07-03T07:47:39.871Z,5.3
2017-07-03T07:48:18.069Z,10.0
2017-07-03T07:48:55.769Z,10.2
2017-07-03T07:49:33.857Z,6.5
2017-07-03T07:50:11.847Z,7.7
2017-07-03T07:50:50.043Z,8.1
2017-07-03T07:51:27.839Z,6.2
2017-07-03T07:52:05.927Z,5.4
2017-07-03T07:52:44.011Z,9.0
2017-07-03T07:53:22.207Z,7.2
2017-07-03T07:53:59.799Z,8.2
2017-07-03T07:54:37.787Z,7.0
2017-07-03T07:55:15.597Z,7.0
2017-07-03T07:55:53.597Z,8.2
2017-07-03T07:56:31.284Z,6.6
2017-07-03T07:57:08.779Z,6.2
2017-07-03T07:57:46.490Z,9.5
2017-07-03T07:58:24.587Z,8.2
2017-07-03T07:59:02.271Z,4.1
2017-07-03T07:59:40.835Z,6.5
2017-07-03T08:00:19.077Z,7.8
2017-07-03T08:00:57.069Z,6.4
2017-07-03T08:01:34.661Z,7.4
2017-07-03T08:02:12.860Z,7.7
2017-07-03T08:02:50.651Z,4.6
2017-07-03T08:03:28.541Z,5.8
2017-07-03T08:04:06.442Z,4.8
2017-07-03T08:04:44.033Z,8.7
2017-07-03T08:05:21.631Z,8.6
2017-07-03T08:05:59.330Z,9.0
2017-07-03T08:06:37.425Z,6.2
2017-07-03T08:07:15.617Z,3.1
2017-07-03T08:07:53.308Z,11.0
2017-07-03T08:08:30.797Z,4.2
2017-07-03T08:09:08.993Z,6.9
2017-07-03T08:09:47.089Z,5.1
2017-07-03T08:10:24.979Z,5.4
2017-07-03T08:11:02.773Z,5.0
2017-07-03T08:11:40.566Z,2.9
2017-07-03T08:12:18.354Z,3.2
2017-07-03T08:12:56.158Z,10.0
2017-07-03T08:13:33.764Z,9.0
2017-07-03T08:14:11.648Z,3.8
2017-07-03T08:14:49.338Z,3.6
2017-07-03T08:15:27.439Z,7.3
2017-07-03T08:16:05.423Z,7.8
2017-07-03T08:16:43.434Z,7.4
2017-07-03T08:17:21.146Z,4.1
2017-07-03T08:17:59.144Z,2.6
2017-07-03T08:18:37.028Z,6.8
2017-07-03T08:19:15.122Z,4.3
2017-07-03T08:19:53.014Z,4.2
2017-07-03T08:20:30.825Z,9.5
2017-07-03T08:21:08.613Z,3.8
2017-07-03T08:21:46.501Z,5.2
2017-07-03T08:22:24.209Z,8.4
2017-07-03T08:23:01.908Z,8.2
2017-07-03T08:23:39.793Z,1.8
2017-07-03T08:24:17.689Z,2.8
2017-07-03T08:24:55.801Z,5.6
2017-07-03T08:25:33.392Z,5.8
2017-07-03T08:26:11.390Z,8.2
2017-07-03T08:26:49.107Z,9.2
2017-07-03T08:27:27.497Z,3.9
2017-07-03T08:28:04.997Z,3.3
2017-07-03T08:28:42.893Z,6.0
2017-07-03T08:29:20.782Z,4.4
2017-07-03T08:29:58.767Z,5.8
2017-07-03T08:30:36.666Z,3.4
2017-07-03T08:31:14.462Z,1.3
2017-07-03T08:31:52.257Z,0.9
2017-07-03T08:32:30.253Z,4.8
2017-07-03T08:33:08.045Z,2.5
2017-07-03T08:33:46.136Z,3.4
2017-07-03T08:34:23.819Z,5.5
2017-07-03T08:35:01.624Z,3.5
2017-07-03T08:35:39.715Z,6.5
2017-07-03T08:36:17.803Z,4.5
2017-07-03T08:36:55.499Z,4.6
2017-07-03T08:37:33.594Z,5.9
2017-07-03T08:38:11.286Z,4.6
2017-07-03T08:38:49.177Z,1.4
2017-07-03T08:39:27.077Z,2.0
2017-07-03T08:40:04.874Z,4.7
2017-07-03T08:40:42.771Z,6.2
2017-07-03T08:41:20.770Z,3.5